Slaughter Beach, Delaware
Current Conditions -  °F | °C
As of 5:58 AM on Monday 22 Dec 2014 (Local Time) from KDOV Reporting Station
Clear Clear  
Wind Chill: 17°   Ceiling: Unl
Heat Index: 26°   Visibility: 10mi
Dew Point: 25°   Wind: 8mph
Humidity: 97%   Direction: 10°N
Pressure: 30.27"   Gusts: NA
Location:  38.9593°N, 75.405°W
Report Text: KDOV 221058Z AUTO 01007KT 10SM CLR M03/M04 A3027 RMK AO2 SLP254 T10351039
Loading
Personal Weather Stations






























Interactive Weather Map New forecast layout! Learn more

10-Day Weather Forecast

Advertisements
Track Severe Weather on mobile